createdAt,value
2017-07-19T00:00:00.585Z,10.85
2017-07-19T00:02:34.344Z,19.37
2017-07-19T00:05:07.985Z,6.32
2017-07-19T00:10:40.003Z,3.67
2017-07-19T00:13:14.504Z,4.53
2017-07-19T00:15:49.061Z,6.05
2017-07-19T00:18:24.387Z,5.37
2017-07-19T00:20:58.294Z,6.87
2017-07-19T00:23:32.183Z,8.95
2017-07-19T00:26:06.012Z,17.25
2017-07-19T00:28:39.997Z,5.75
2017-07-19T00:31:13.746Z,5.45
2017-07-19T00:33:47.634Z,12.73
2017-07-19T00:36:21.500Z,5.40
2017-07-19T00:38:55.460Z,7.65
2017-07-19T00:41:30.327Z,11.48
2017-07-19T00:44:04.273Z,12.55
2017-07-19T00:46:39.771Z,13.00
2017-07-19T00:49:13.613Z,9.77
2017-07-19T00:51:48.331Z,7.72
2017-07-19T00:54:22.637Z,5.57
2017-07-19T00:56:56.292Z,6.07
2017-07-19T00:59:30.951Z,16.80
2017-07-19T01:02:05.962Z,9.35
2017-07-19T01:04:40.525Z,7.37
2017-07-19T01:07:14.354Z,10.90
2017-07-19T01:09:49.086Z,6.47
2017-07-19T01:12:23.478Z,15.60
2017-07-19T01:14:57.186Z,13.05
2017-07-19T01:17:32.675Z,12.37
2017-07-19T01:20:06.384Z,19.58
2017-07-19T01:22:41.110Z,9.02
2017-07-19T01:25:14.855Z,6.75
2017-07-19T01:27:48.625Z,3.53
2017-07-19T01:30:22.281Z,3.42
2017-07-19T01:32:56.105Z,1.80
2017-07-19T01:35:29.994Z,4.60
2017-07-19T01:38:04.722Z,13.65
2017-07-19T01:40:38.718Z,6.75
2017-07-19T01:43:13.779Z,5.78
2017-07-19T01:45:48.374Z,6.87
2017-07-19T01:48:22.265Z,8.85
2017-07-19T01:50:56.258Z,31.35
2017-07-19T01:53:30.245Z,12.55
2017-07-19T01:56:04.115Z,17.33
2017-07-19T01:58:39.023Z,19.35
2017-07-19T02:01:13.932Z,11.38
2017-07-19T02:03:47.807Z,15.27
2017-07-19T02:06:21.999Z,28.33
2017-07-19T02:08:56.710Z,13.43
2017-07-19T02:11:30.563Z,16.60
2017-07-19T02:16:45.087Z,8.27
2017-07-19T02:19:18.994Z,11.05
2017-07-19T02:21:53.584Z,7.50
2017-07-19T02:24:27.446Z,19.37
2017-07-19T02:27:01.607Z,10.68
2017-07-19T02:32:17.576Z,7.82
2017-07-19T02:34:51.527Z,13.70
2017-07-19T02:37:25.361Z,7.28
2017-07-19T02:39:59.182Z,16.92
2017-07-19T02:42:33.086Z,16.27
2017-07-19T02:45:07.081Z,17.15
2017-07-19T02:47:41.322Z,18.45
2017-07-19T02:50:15.893Z,12.80
2017-07-19T02:52:50.683Z,7.45
2017-07-19T02:55:26.445Z,18.17
2017-07-19T02:58:00.290Z,9.32
2017-07-19T03:00:35.071Z,14.35
2017-07-19T03:03:11.203Z,17.52
2017-07-19T03:05:45.357Z,6.07
2017-07-19T03:08:19.316Z,8.55
2017-07-19T03:10:53.144Z,12.23
2017-07-19T03:13:26.874Z,12.13
2017-07-19T03:16:00.573Z,6.43
2017-07-19T03:18:34.342Z,10.27
2017-07-19T03:21:08.028Z,9.52
2017-07-19T03:23:41.815Z,14.05
2017-07-19T03:26:15.914Z,23.02
2017-07-19T03:28:50.030Z,26.05
2017-07-19T03:31:23.863Z,10.50
2017-07-19T03:33:57.741Z,11.70
2017-07-19T03:36:32.300Z,15.70
2017-07-19T03:39:07.084Z,14.20
2017-07-19T03:41:41.637Z,9.57
2017-07-19T03:44:15.427Z,16.80
2017-07-19T03:46:49.254Z,7.53
2017-07-19T03:49:22.926Z,9.55
2017-07-19T03:51:56.726Z,17.10
2017-07-19T03:54:30.534Z,16.17
2017-07-19T03:57:04.462Z,15.65
2017-07-19T03:59:38.399Z,11.75
2017-07-19T04:02:12.147Z,19.60
2017-07-19T04:04:46.760Z,15.93
2017-07-19T04:07:20.537Z,23.58
2017-07-19T04:09:54.325Z,12.95
2017-07-19T04:12:28.062Z,19.60
2017-07-19T04:15:01.788Z,15.05
2017-07-19T04:17:36.321Z,20.67
2017-07-19T04:20:10.165Z,19.33
2017-07-19T04:22:44.520Z,16.67
2017-07-19T04:25:18.486Z,14.05
2017-07-19T04:27:53.522Z,11.68
2017-07-19T04:30:27.425Z,8.02
2017-07-19T04:33:02.165Z,18.77
2017-07-19T04:35:36.069Z,12.98
2017-07-19T04:38:09.871Z,10.23
2017-07-19T04:40:43.653Z,9.07
2017-07-19T04:43:18.121Z,22.55
2017-07-19T04:45:51.769Z,34.85
2017-07-19T04:48:28.188Z,22.87
2017-07-19T04:51:17.081Z,4.25
2017-07-19T04:53:50.749Z,16.75
2017-07-19T04:56:24.343Z,5.32
2017-07-19T04:59:01.635Z,17.10
2017-07-19T05:01:35.413Z,14.70
2017-07-19T05:04:09.210Z,9.05
2017-07-19T05:06:43.128Z,9.52
2017-07-19T05:09:17.617Z,11.82
2017-07-19T05:11:51.462Z,4.45
2017-07-19T05:14:26.349Z,6.12
2017-07-19T05:17:00.779Z,10.38
2017-07-19T05:19:34.513Z,9.27
2017-07-19T05:22:09.180Z,8.75
2017-07-19T05:24:44.059Z,11.63
2017-07-19T05:27:19.584Z,23.15
2017-07-19T05:29:53.443Z,9.77
2017-07-19T05:32:27.313Z,13.98
2017-07-19T05:35:01.026Z,15.02
2017-07-19T05:37:34.984Z,16.85
2017-07-19T05:40:09.605Z,16.95
2017-07-19T05:42:43.308Z,10.45
2017-07-19T05:45:17.273Z,19.12
2017-07-19T05:47:51.030Z,11.75
2017-07-19T05:50:24.737Z,15.05
2017-07-19T05:52:59.406Z,9.30
2017-07-19T05:55:33.078Z,14.95
2017-07-19T05:58:08.296Z,19.48
2017-07-19T06:00:42.020Z,10.50
2017-07-19T06:03:18.101Z,7.62
2017-07-19T06:05:57.129Z,9.55
2017-07-19T06:08:31.891Z,6.75
2017-07-19T06:11:10.386Z,4.62
2017-07-19T06:13:45.021Z,8.88
2017-07-19T06:16:19.762Z,8.98
2017-07-19T06:18:56.072Z,29.70
2017-07-19T06:21:30.763Z,14.87
2017-07-19T06:24:04.512Z,16.17
2017-07-19T06:26:43.338Z,9.85
2017-07-19T06:29:17.074Z,12.65
2017-07-19T06:31:51.645Z,19.12
2017-07-19T06:34:25.390Z,10.80
2017-07-19T06:37:01.716Z,4.25
2017-07-19T06:39:42.201Z,13.77
2017-07-19T06:42:15.844Z,8.15
2017-07-19T06:44:49.573Z,16.90
2017-07-19T06:47:26.842Z,13.82
2017-07-19T06:50:02.079Z,14.65
2017-07-19T06:52:41.795Z,15.07
2017-07-19T06:55:15.431Z,11.70
2017-07-19T06:57:49.172Z,11.30
2017-07-19T07:00:22.899Z,16.17
2017-07-19T07:02:56.459Z,8.77
2017-07-19T07:05:30.073Z,13.48
2017-07-19T07:08:09.323Z,11.57
2017-07-19T07:10:43.793Z,34.08
2017-07-19T07:13:19.362Z,16.98
2017-07-19T07:15:53.981Z,14.80
2017-07-19T07:18:27.673Z,10.15
2017-07-19T07:21:01.655Z,9.27
2017-07-19T07:23:36.474Z,14.07
2017-07-19T07:26:16.814Z,12.95
2017-07-19T07:28:54.759Z,13.05
2017-07-19T07:31:28.557Z,17.08
2017-07-19T07:34:03.558Z,7.78
2017-07-19T07:36:37.299Z,8.10
2017-07-19T07:39:11.267Z,13.75
2017-07-19T07:41:44.922Z,9.32
2017-07-19T07:44:18.590Z,14.38
2017-07-19T07:46:56.198Z,9.85
2017-07-19T07:49:29.881Z,21.20
2017-07-19T07:52:04.703Z,11.27
2017-07-19T07:54:39.308Z,23.48
2017-07-19T07:57:14.121Z,18.10
2017-07-19T07:59:48.660Z,22.10
2017-07-19T08:02:22.460Z,25.52
2017-07-19T08:04:56.996Z,18.23
2017-07-19T08:07:33.566Z,10.60
2017-07-19T08:10:08.928Z,24.33
2017-07-19T08:12:45.402Z,8.45
2017-07-19T08:15:19.259Z,14.05
2017-07-19T08:17:54.707Z,71.60
2017-07-19T08:20:29.640Z,10.68
2017-07-19T08:23:03.515Z,9.98
2017-07-19T08:25:37.353Z,19.58
2017-07-19T08:28:11.944Z,21.33
2017-07-19T08:30:46.469Z,17.92
2017-07-19T08:33:20.489Z,15.75
2017-07-19T08:35:54.472Z,14.25
2017-07-19T08:38:28.235Z,17.95
2017-07-19T08:41:01.992Z,8.23
2017-07-19T08:43:35.786Z,14.40
2017-07-19T08:48:53.516Z,7.62
2017-07-19T08:51:30.146Z,11.23
2017-07-19T08:54:06.205Z,18.08
2017-07-19T08:56:40.591Z,29.42
2017-07-19T08:59:15.945Z,13.70
2017-07-19T09:04:31.378Z,14.32
2017-07-19T09:07:05.302Z,18.87
2017-07-19T09:09:40.171Z,13.10
2017-07-19T09:12:13.981Z,16.08
2017-07-19T09:14:49.688Z,22.35
2017-07-19T09:17:25.354Z,14.18
2017-07-19T09:19:59.310Z,16.77
2017-07-19T09:22:33.126Z,14.95
2017-07-19T09:25:06.847Z,19.62
2017-07-19T09:27:40.805Z,15.00
2017-07-19T09:30:14.957Z,16.10
2017-07-19T09:32:51.864Z,13.90
2017-07-19T09:35:25.690Z,9.18
2017-07-19T09:37:59.496Z,20.00
2017-07-19T09:40:33.163Z,6.32
2017-07-19T09:43:07.750Z,9.55
2017-07-19T09:45:42.265Z,10.82
2017-07-19T09:48:16.974Z,9.30
2017-07-19T09:50:50.825Z,11.25
2017-07-19T09:53:25.686Z,16.73
2017-07-19T09:55:59.282Z,19.37
2017-07-19T09:58:33.902Z,6.60
2017-07-19T10:01:07.954Z,8.07
2017-07-19T10:03:41.703Z,7.03
2017-07-19T10:06:15.667Z,7.55
2017-07-19T10:08:49.651Z,8.73
2017-07-19T10:11:23.323Z,10.00
2017-07-19T10:13:58.031Z,11.55
2017-07-19T10:16:31.767Z,7.35
2017-07-19T10:19:07.316Z,22.25
2017-07-19T10:21:43.495Z,11.20
2017-07-19T10:24:17.421Z,8.38
2017-07-19T10:26:51.293Z,17.75
2017-07-19T10:29:25.203Z,15.30
2017-07-19T10:31:59.279Z,9.38
2017-07-19T10:34:33.157Z,9.23
2017-07-19T10:37:08.356Z,7.27
2017-07-19T10:39:43.216Z,16.83
2017-07-19T10:42:17.240Z,11.48
2017-07-19T10:44:51.369Z,10.02
2017-07-19T10:47:26.503Z,8.43
2017-07-19T10:50:00.386Z,26.77
2017-07-19T10:52:34.332Z,12.05
2017-07-19T10:55:08.387Z,12.80
2017-07-19T10:57:42.424Z,11.88
2017-07-19T11:00:16.445Z,13.02
2017-07-19T11:02:51.006Z,14.93
2017-07-19T11:05:24.780Z,12.37
2017-07-19T11:07:58.773Z,10.07
2017-07-19T11:10:32.435Z,12.77
2017-07-19T11:13:06.765Z,16.48
2017-07-19T11:15:41.155Z,17.75
2017-07-19T11:18:14.782Z,7.50
2017-07-19T11:20:49.223Z,22.00
2017-07-19T11:23:22.867Z,17.55
2017-07-19T11:26:00.982Z,84.22
2017-07-19T11:28:38.732Z,11.82
2017-07-19T11:31:13.651Z,15.43
2017-07-19T11:33:47.219Z,11.98
2017-07-19T11:36:22.678Z,12.48
2017-07-19T11:38:56.751Z,11.88
2017-07-19T11:41:30.972Z,26.70
2017-07-19T11:44:04.770Z,6.70
2017-07-19T11:46:39.431Z,28.12
2017-07-19T11:49:13.374Z,13.75
2017-07-19T11:51:47.516Z,11.85
2017-07-19T11:54:21.431Z,8.85
2017-07-19T11:56:55.407Z,16.52
2017-07-19T11:59:29.351Z,16.15
2017-07-19T12:02:04.006Z,10.93
2017-07-19T12:04:38.158Z,7.87
2017-07-19T12:07:12.068Z,14.32
2017-07-19T12:09:46.367Z,14.27
2017-07-19T12:12:20.435Z,8.30
2017-07-19T12:14:54.583Z,10.48
2017-07-19T12:17:28.472Z,13.20
2017-07-19T12:20:02.436Z,11.18
2017-07-19T12:22:37.688Z,17.27
2017-07-19T12:25:11.778Z,17.02
2017-07-19T12:27:47.387Z,12.95
2017-07-19T12:30:23.202Z,16.42
2017-07-19T12:32:57.035Z,8.98
2017-07-19T12:35:31.936Z,10.68
2017-07-19T12:38:06.754Z,16.27
2017-07-19T12:40:52.481Z,29.90
2017-07-19T12:43:29.757Z,22.35
2017-07-19T12:46:04.573Z,11.50
2017-07-19T12:48:40.607Z,5.75
2017-07-19T12:51:16.114Z,22.55
2017-07-19T12:53:53.699Z,7.28
2017-07-19T12:56:28.801Z,11.68
2017-07-19T12:59:02.720Z,19.00
2017-07-19T13:01:41.367Z,15.45
2017-07-19T13:04:15.209Z,10.37
2017-07-19T13:06:50.130Z,11.23
2017-07-19T13:09:24.252Z,15.07
2017-07-19T13:11:58.458Z,6.30
2017-07-19T13:17:21.878Z,25.42
2017-07-19T13:19:57.565Z,22.95
2017-07-19T13:22:32.660Z,22.13
2017-07-19T13:25:07.571Z,16.73
2017-07-19T13:27:42.405Z,12.88
2017-07-19T13:30:21.257Z,31.50
2017-07-19T13:33:04.269Z,34.92
2017-07-19T13:35:40.586Z,21.10
2017-07-19T13:38:15.509Z,7.93
2017-07-19T13:40:51.923Z,21.37
2017-07-19T13:43:31.363Z,29.90
2017-07-19T13:46:05.682Z,28.62
2017-07-19T13:48:46.888Z,37.35
2017-07-19T13:51:22.717Z,35.47
2017-07-19T13:54:04.224Z,39.70
2017-07-19T13:56:40.522Z,31.63
2017-07-19T13:59:17.887Z,42.92
2017-07-19T14:01:51.853Z,18.87
2017-07-19T14:04:26.024Z,15.07
2017-07-19T14:07:00.211Z,15.88
2017-07-19T14:09:37.203Z,30.63
2017-07-19T14:12:13.727Z,11.35
2017-07-19T14:14:49.657Z,13.68
2017-07-19T14:17:30.977Z,27.30
2017-07-19T14:20:11.722Z,49.00
2017-07-19T14:22:48.315Z,57.60
2017-07-19T14:25:22.630Z,42.03
2017-07-19T14:30:55.042Z,31.53
2017-07-19T14:33:29.436Z,40.17
2017-07-19T14:36:04.499Z,69.57
2017-07-19T14:38:38.228Z,12.37
2017-07-19T14:41:12.700Z,13.10
2017-07-19T14:43:46.565Z,12.52
2017-07-19T14:46:21.293Z,15.03
2017-07-19T14:48:55.427Z,29.03
2017-07-19T14:51:29.602Z,18.42
2017-07-19T14:54:03.522Z,28.30
2017-07-19T14:56:38.207Z,12.70
2017-07-19T14:59:13.087Z,13.98
2017-07-19T15:01:46.983Z,8.60
2017-07-19T15:04:20.971Z,14.77
2017-07-19T15:06:55.447Z,12.67
2017-07-19T15:09:29.363Z,24.73
2017-07-19T15:12:03.187Z,22.70
2017-07-19T15:14:37.988Z,18.15
2017-07-19T15:17:11.925Z,33.53
2017-07-19T15:19:46.643Z,20.88
2017-07-19T15:22:22.202Z,12.83
2017-07-19T15:24:56.230Z,13.03
2017-07-19T15:30:12.674Z,17.43
2017-07-19T15:32:47.582Z,24.20
2017-07-19T15:35:21.504Z,23.63
2017-07-19T15:37:55.559Z,14.30
2017-07-19T15:40:30.355Z,11.00
2017-07-19T15:43:05.876Z,9.30
2017-07-19T15:45:40.658Z,8.63
2017-07-19T15:48:20.239Z,47.10
2017-07-19T15:50:54.048Z,16.20
2017-07-19T15:53:28.840Z,16.70
2017-07-19T15:56:07.571Z,27.63
2017-07-19T15:58:43.664Z,42.03
2017-07-19T16:01:18.417Z,22.87
2017-07-19T16:03:55.764Z,16.90
2017-07-19T16:06:30.256Z,30.70
2017-07-19T16:09:04.198Z,13.23
2017-07-19T16:11:38.945Z,14.70
2017-07-19T16:14:15.468Z,15.87
2017-07-19T16:16:49.728Z,14.63
2017-07-19T16:19:23.737Z,18.30
2017-07-19T16:22:01.462Z,19.37
2017-07-19T16:24:37.370Z,35.10
2017-07-19T16:27:13.978Z,28.53
2017-07-19T16:29:54.490Z,44.60
2017-07-19T16:32:29.424Z,36.30
2017-07-19T16:35:04.562Z,26.80
2017-07-19T16:37:43.807Z,97.80
2017-07-19T16:40:20.577Z,69.30
2017-07-19T16:43:12.136Z,66.80
2017-07-19T16:45:46.305Z,38.53
2017-07-19T16:48:22.918Z,58.00
2017-07-19T16:51:00.395Z,34.63
2017-07-19T16:53:34.957Z,39.93
2017-07-19T16:56:14.173Z,34.43
2017-07-19T16:58:48.456Z,18.50
2017-07-19T17:01:27.536Z,38.37
2017-07-19T17:04:02.612Z,24.80
2017-07-19T17:06:38.414Z,30.70
2017-07-19T17:09:20.602Z,50.90
2017-07-19T17:11:56.015Z,55.97
2017-07-19T17:14:30.139Z,29.27
2017-07-19T17:17:04.349Z,28.63
2017-07-19T17:19:40.937Z,20.93
2017-07-19T17:22:18.110Z,31.23
2017-07-19T17:24:55.020Z,24.87
2017-07-19T17:27:30.198Z,36.00
2017-07-19T17:30:06.604Z,40.00
2017-07-19T17:32:42.073Z,56.83
2017-07-19T17:35:17.655Z,46.27
2017-07-19T17:37:53.240Z,28.27
2017-07-19T17:40:27.135Z,41.67
2017-07-19T17:43:00.973Z,34.80
2017-07-19T17:45:39.056Z,58.03
2017-07-19T17:48:15.063Z,37.20
2017-07-19T17:50:50.396Z,28.07
2017-07-19T17:53:25.549Z,63.23
2017-07-19T17:56:00.875Z,27.93
2017-07-19T17:58:36.759Z,40.20
2017-07-19T18:01:11.588Z,35.20
2017-07-19T18:03:45.914Z,33.83
2017-07-19T18:06:22.963Z,28.37
2017-07-19T18:09:00.924Z,25.10
2017-07-19T18:11:36.030Z,25.75
2017-07-19T18:14:10.011Z,31.05
2017-07-19T18:16:43.942Z,49.55
2017-07-19T18:19:19.237Z,20.70
2017-07-19T18:21:56.429Z,48.40
2017-07-19T18:24:33.397Z,53.42
2017-07-19T18:27:14.428Z,36.30
2017-07-19T18:29:57.039Z,69.47
2017-07-19T18:32:42.295Z,39.97
2017-07-19T18:35:19.372Z,45.87
2017-07-19T18:40:51.326Z,53.90
2017-07-19T18:43:28.790Z,73.50
2017-07-19T18:46:06.928Z,96.07
2017-07-19T18:48:48.496Z,51.80
2017-07-19T18:51:28.288Z,126.32
2017-07-19T18:54:11.928Z,86.72
2017-07-19T18:59:30.866Z,51.20
2017-07-19T19:02:07.151Z,45.53
2017-07-19T19:04:42.627Z,28.73
2017-07-19T19:07:19.242Z,51.45
2017-07-19T19:09:54.467Z,35.53
2017-07-19T19:12:30.291Z,53.00
2017-07-19T19:15:04.338Z,46.47
2017-07-19T19:17:39.930Z,58.53
2017-07-19T19:20:16.896Z,44.08
2017-07-19T19:22:56.334Z,42.95
2017-07-19T19:25:31.477Z,41.03
2017-07-19T19:28:07.286Z,44.85
2017-07-19T19:30:41.243Z,41.97
2017-07-19T19:33:17.609Z,26.70
2017-07-19T19:35:52.681Z,46.25
2017-07-19T19:38:30.467Z,64.20
2017-07-19T19:41:05.689Z,40.90
2017-07-19T19:43:41.970Z,41.50
2017-07-19T19:46:16.891Z,32.70
2017-07-19T19:48:51.727Z,28.83
2017-07-19T19:51:29.631Z,38.17
2017-07-19T19:54:04.676Z,43.67
2017-07-19T19:56:39.085Z,23.00
2017-07-19T19:59:13.378Z,40.70
2017-07-19T20:01:47.561Z,37.55
2017-07-19T20:04:26.416Z,42.72
2017-07-19T20:07:00.418Z,22.95
2017-07-19T20:09:34.674Z,30.00
2017-07-19T20:12:09.185Z,51.70
2017-07-19T20:14:47.521Z,61.78
2017-07-19T20:20:21.568Z,37.88
2017-07-19T20:25:54.166Z,39.75
2017-07-19T20:28:29.749Z,28.92
2017-07-19T20:31:04.709Z,60.15
2017-07-19T20:33:40.028Z,37.47
2017-07-19T20:36:13.795Z,40.22
2017-07-19T20:38:49.522Z,22.65
2017-07-19T20:41:23.328Z,35.33
2017-07-19T20:43:57.144Z,32.05
2017-07-19T20:46:32.852Z,42.45
2017-07-19T20:49:09.210Z,25.42
2017-07-19T20:51:43.265Z,36.13
2017-07-19T20:54:18.165Z,34.72
2017-07-19T20:56:52.024Z,18.33
2017-07-19T20:59:26.136Z,61.65
2017-07-19T21:02:00.978Z,24.05
2017-07-19T21:04:35.072Z,22.65
2017-07-19T21:07:10.323Z,30.77
2017-07-19T21:09:44.629Z,30.73
2017-07-19T21:12:19.368Z,17.25
2017-07-19T21:14:55.027Z,47.47
2017-07-19T21:17:29.888Z,30.90
2017-07-19T21:20:03.789Z,38.28
2017-07-19T21:22:37.756Z,48.13
2017-07-19T21:25:11.683Z,39.65
2017-07-19T21:27:45.651Z,38.10
2017-07-19T21:30:19.544Z,60.38
2017-07-19T21:32:54.714Z,27.65
2017-07-19T21:35:29.687Z,34.85
2017-07-19T21:38:03.690Z,33.28
2017-07-19T21:40:37.605Z,20.80
2017-07-19T21:43:12.209Z,29.95
2017-07-19T21:45:46.094Z,15.80
2017-07-19T21:48:20.212Z,45.10
2017-07-19T21:50:54.185Z,75.60
2017-07-19T21:53:28.239Z,28.23
2017-07-19T21:56:02.409Z,13.93
2017-07-19T21:58:37.395Z,22.42
2017-07-19T22:01:11.266Z,30.62
2017-07-19T22:03:45.033Z,21.50
2017-07-19T22:06:19.903Z,22.52
2017-07-19T22:08:53.853Z,30.70
2017-07-19T22:11:28.190Z,40.22
2017-07-19T22:14:02.137Z,35.97
2017-07-19T22:16:36.215Z,50.90
2017-07-19T22:19:10.196Z,23.33
2017-07-19T22:21:45.267Z,24.90
2017-07-19T22:24:19.360Z,41.58
2017-07-19T22:26:53.130Z,27.62
2017-07-19T22:29:27.754Z,48.65
2017-07-19T22:32:01.665Z,33.33
2017-07-19T22:34:36.142Z,25.08
2017-07-19T22:37:11.627Z,33.08
2017-07-19T22:39:46.832Z,26.33
2017-07-19T22:42:20.956Z,34.92
2017-07-19T22:44:56.666Z,34.25
2017-07-19T22:47:33.245Z,16.33
2017-07-19T22:50:07.070Z,35.50
2017-07-19T22:52:43.645Z,23.52
2017-07-19T22:55:18.087Z,24.65
2017-07-19T22:57:53.077Z,31.27
2017-07-19T23:03:24.348Z,28.12
2017-07-19T23:05:58.176Z,25.02
2017-07-19T23:08:33.052Z,33.53
2017-07-19T23:11:08.867Z,23.73
2017-07-19T23:13:43.881Z,33.35
2017-07-19T23:16:17.691Z,55.47
2017-07-19T23:18:51.704Z,39.60
2017-07-19T23:21:26.363Z,22.77
2017-07-19T23:24:01.985Z,30.80
2017-07-19T23:26:36.035Z,31.85
2017-07-19T23:29:10.806Z,30.92
2017-07-19T23:31:44.856Z,44.40
2017-07-19T23:34:20.846Z,61.42
2017-07-19T23:36:55.674Z,30.70
2017-07-19T23:39:29.696Z,36.70
2017-07-19T23:42:03.692Z,18.17
2017-07-19T23:44:37.977Z,42.45
2017-07-19T23:47:11.968Z,35.10
2017-07-19T23:49:45.981Z,40.05
2017-07-19T23:52:20.426Z,33.20
2017-07-19T23:54:55.765Z,34.90
2017-07-19T23:57:29.875Z,34.88
